Terminal Aerodrome Forecast
Issued by NWS

Home | Current Version | Previous Version | Text Only | Print | Product List | Glossary On
Versions: 1 2 3 4 5 6 7 8 9 10 11 12 13
000
FTUS43 KICT 031945 AAA
TAFHUT
TAF AMD
KHUT 031945Z 0320/0418 04009KT P6SM BKN040
     FM040200 10007KT P6SM SCT040 BKN200
     FM040800 13007KT P6SM SKC=

USA.gov is the U.S. government's official web portal to all federal, state and local government web resources and services.